createdAt,value
2023-05-24T00:01:57.042Z,99932.16
2023-05-24T00:04:25.506Z,99931.09
2023-05-24T00:06:55.136Z,99935.47
2023-05-24T00:09:21.914Z,99930.63
2023-05-24T00:11:48.792Z,99929.59
2023-05-24T00:14:15.643Z,99923.69
2023-05-24T00:16:42.492Z,99924.78
2023-05-24T00:19:11.380Z,99925.13
2023-05-24T00:21:38.260Z,99921.97
2023-05-24T00:24:05.193Z,99922.81
2023-05-24T00:26:31.817Z,99914.47
2023-05-24T00:28:58.383Z,99917.75
2023-05-24T00:31:25.073Z,99910.50
2023-05-24T00:33:51.742Z,99911.38
2023-05-24T00:36:18.350Z,99912.75
2023-05-24T00:38:44.950Z,99917.94
2023-05-24T00:41:11.653Z,99915.81
2023-05-24T00:43:38.318Z,99913.38
2023-05-24T00:46:16.883Z,99904.00
2023-05-24T00:48:44.744Z,99908.88
2023-05-24T00:51:13.333Z,99907.03
2023-05-24T00:53:41.436Z,99920.03
2023-05-24T00:56:08.636Z,99917.34
2023-05-24T00:58:35.505Z,99916.81
2023-05-24T01:01:03.691Z,99910.38
2023-05-24T01:03:30.680Z,99917.97
2023-05-24T01:06:03.499Z,99920.66
2023-05-24T01:08:48.066Z,99917.72
2023-05-24T01:11:33.263Z,99928.53
2023-05-24T01:14:16.234Z,99925.03
2023-05-24T01:16:56.578Z,99917.50
2023-05-24T01:19:48.837Z,99920.47
2023-05-24T01:22:15.316Z,99920.28
2023-05-24T01:24:55.902Z,99932.72
2023-05-24T01:27:24.085Z,99933.03
2023-05-24T01:29:53.536Z,99932.47
2023-05-24T01:32:20.734Z,99933.28
2023-05-24T01:34:47.483Z,99938.19
2023-05-24T01:37:14.378Z,99932.78
2023-05-24T01:39:41.856Z,99937.66
2023-05-24T01:42:36.539Z,99935.28
2023-05-24T01:45:30.096Z,99936.09
2023-05-24T01:48:08.960Z,99927.47
2023-05-24T01:50:49.872Z,99928.88
2023-05-24T01:53:19.809Z,99931.31
2023-05-24T01:55:49.608Z,99928.66
2023-05-24T01:58:19.368Z,99930.31
2023-05-24T02:00:46.528Z,99944.34
2023-05-24T02:03:17.091Z,99946.53
2023-05-24T02:05:45.112Z,99943.28
2023-05-24T02:08:12.865Z,99948.47
2023-05-24T02:10:41.044Z,99941.19
2023-05-24T02:13:08.398Z,99943.94
2023-05-24T02:15:35.658Z,99942.34
2023-05-24T02:18:02.522Z,99944.78
2023-05-24T02:20:31.161Z,99949.13
2023-05-24T02:22:58.307Z,99944.00
2023-05-24T02:25:24.862Z,99942.69
2023-05-24T02:27:52.157Z,99942.94
2023-05-24T02:30:18.915Z,99932.69
2023-05-24T02:32:45.606Z,99938.66
2023-05-24T02:35:12.577Z,99931.13
2023-05-24T02:37:39.161Z,99922.75
2023-05-24T02:40:06.567Z,99926.28
2023-05-24T02:42:33.135Z,99936.03
2023-05-24T02:44:59.702Z,99934.16
2023-05-24T02:47:28.922Z,99934.47
2023-05-24T02:49:56.397Z,99937.72
2023-05-24T02:52:23.472Z,99936.66
2023-05-24T02:54:50.516Z,99938.56
2023-05-24T02:57:17.128Z,99929.69
2023-05-24T02:59:43.935Z,99927.81
2023-05-24T03:02:13.692Z,99927.56
2023-05-24T03:04:40.510Z,99930.53
2023-05-24T03:07:07.204Z,99929.47
2023-05-24T03:09:33.894Z,99929.22
2023-05-24T03:12:00.737Z,99925.97
2023-05-24T03:14:27.466Z,99932.75
2023-05-24T03:16:54.050Z,99921.44
2023-05-24T03:19:20.692Z,99938.16
2023-05-24T03:21:47.279Z,99932.78
2023-05-24T03:24:14.358Z,99929.81
2023-05-24T03:26:41.224Z,99931.19
2023-05-24T03:29:07.981Z,99933.91
2023-05-24T03:31:34.716Z,99936.59
2023-05-24T03:34:01.525Z,99944.94
2023-05-24T03:36:29.204Z,99944.41
2023-05-24T03:38:58.473Z,99934.72
2023-05-24T03:41:25.467Z,99935.78
2023-05-24T03:43:52.771Z,99940.66
2023-05-24T03:46:19.577Z,99944.44
2023-05-24T03:48:46.327Z,99941.75
2023-05-24T03:51:12.915Z,99941.22
2023-05-24T03:53:39.616Z,99952.00
2023-05-24T03:56:06.477Z,99949.84
2023-05-24T03:58:33.112Z,99948.22
2023-05-24T04:01:00.244Z,99946.06
2023-05-24T04:03:27.225Z,99945.75
2023-05-24T04:05:54.144Z,99945.22
2023-05-24T04:08:20.744Z,99941.47
2023-05-24T04:10:47.274Z,99946.84
2023-05-24T04:13:13.921Z,99950.38
2023-05-24T04:15:40.865Z,99956.03
2023-05-24T04:18:07.696Z,99963.34
2023-05-24T04:20:34.424Z,99957.94
2023-05-24T04:23:01.243Z,99960.09
2023-05-24T04:25:27.963Z,99956.84
2023-05-24T04:27:54.638Z,99964.63
2023-05-24T04:30:21.570Z,99964.38
2023-05-24T04:32:48.735Z,99967.09
2023-05-24T04:35:16.852Z,99963.31
2023-05-24T04:37:44.574Z,99958.97
2023-05-24T04:40:11.840Z,99966.50
2023-05-24T04:42:38.482Z,99962.19
2023-05-24T04:45:05.751Z,99958.97
2023-05-24T04:47:32.540Z,99962.72
2023-05-24T04:49:59.141Z,99961.63
2023-05-24T04:52:25.934Z,99962.00
2023-05-24T04:54:52.922Z,99953.78
2023-05-24T04:57:19.543Z,99954.88
2023-05-24T04:59:46.239Z,99952.75
2023-05-24T05:02:12.891Z,99959.91
2023-05-24T05:04:39.551Z,99954.75
2023-05-24T05:07:06.772Z,99949.78
2023-05-24T05:09:33.475Z,99948.88
2023-05-24T05:12:00.242Z,99955.41
2023-05-24T05:14:26.862Z,99947.25
2023-05-24T05:16:53.494Z,99942.50
2023-05-24T05:19:20.111Z,99955.81
2023-05-24T05:21:46.883Z,99951.63
2023-05-24T05:24:15.788Z,99973.44
2023-05-24T05:26:42.657Z,99958.41
2023-05-24T05:29:09.250Z,99961.88
2023-05-24T05:31:36.073Z,99962.69
2023-05-24T05:34:03.058Z,99966.59
2023-05-24T05:36:29.638Z,99961.13
2023-05-24T05:38:56.194Z,99961.53
2023-05-24T05:41:22.836Z,99964.44
2023-05-24T05:43:49.418Z,99968.66
2023-05-24T05:46:16.238Z,99979.97
2023-05-24T05:48:44.312Z,99971.75
2023-05-24T05:51:12.971Z,99978.72
2023-05-24T05:53:39.560Z,99970.75
2023-05-24T05:56:06.356Z,99972.81
2023-05-24T05:58:32.921Z,99978.16
2023-05-24T06:00:59.537Z,99981.69
2023-05-24T06:03:26.355Z,99975.31
2023-05-24T06:05:53.096Z,99969.09
2023-05-24T06:08:19.631Z,99972.53
2023-05-24T06:10:46.321Z,99976.44
2023-05-24T06:13:13.636Z,99975.44
2023-05-24T06:15:40.613Z,99983.97
2023-05-24T06:18:07.205Z,99979.72
2023-05-24T06:20:33.850Z,99979.41
2023-05-24T06:23:00.466Z,99974.59
2023-05-24T06:25:30.804Z,99982.50
2023-05-24T06:27:57.574Z,99978.16
2023-05-24T06:30:24.355Z,99974.56
2023-05-24T06:32:51.221Z,99980.31
2023-05-24T06:35:18.000Z,99985.97
2023-05-24T06:37:44.529Z,99983.63
2023-05-24T06:40:11.923Z,99977.84
2023-05-24T06:42:39.917Z,99977.00
2023-05-24T06:45:08.475Z,99985.59
2023-05-24T06:47:35.488Z,99987.38
2023-05-24T06:50:04.360Z,99984.81
2023-05-24T06:52:30.943Z,99979.00
2023-05-24T06:54:57.514Z,99975.13
2023-05-24T06:57:24.710Z,99978.84
2023-05-24T06:59:52.062Z,99985.69
2023-05-24T07:02:18.823Z,99982.31
2023-05-24T07:04:46.054Z,99983.88
2023-05-24T07:07:13.732Z,99989.25
2023-05-24T07:09:42.213Z,99983.19
2023-05-24T07:12:09.227Z,99984.03
2023-05-24T07:14:36.170Z,99969.38
2023-05-24T07:17:02.928Z,99975.50
2023-05-24T07:19:30.024Z,99975.38
2023-05-24T07:21:56.878Z,99979.72
2023-05-24T07:24:24.183Z,99981.19
2023-05-24T07:26:51.909Z,99982.53
2023-05-24T07:29:18.564Z,99988.06
2023-05-24T07:31:45.644Z,99988.28
2023-05-24T07:34:12.298Z,99980.59
2023-05-24T07:36:40.907Z,99980.69
2023-05-24T07:39:10.004Z,99998.09
2023-05-24T07:41:37.134Z,99987.75
2023-05-24T07:44:03.820Z,99984.88
2023-05-24T07:46:30.407Z,99987.97
2023-05-24T07:48:57.028Z,99995.88
2023-05-24T07:51:23.724Z,99996.44
2023-05-24T07:53:53.189Z,99993.75
2023-05-24T07:56:19.812Z,99989.88
2023-05-24T07:58:46.972Z,99994.28
2023-05-24T08:01:14.476Z,99991.66
2023-05-24T08:03:41.273Z,99998.53
2023-05-24T08:06:08.109Z,99997.53
2023-05-24T08:08:34.756Z,100002.03
2023-05-24T08:11:01.950Z,99998.63
2023-05-24T08:13:28.549Z,99996.72
2023-05-24T08:15:55.147Z,100004.28
2023-05-24T08:18:21.775Z,99997.31
2023-05-24T08:20:48.535Z,99997.72
2023-05-24T08:23:15.233Z,99998.97
2023-05-24T08:25:42.899Z,100002.91
2023-05-24T08:28:11.108Z,100004.69
2023-05-24T08:30:38.156Z,99995.28
2023-05-24T08:33:04.839Z,100002.53
2023-05-24T08:35:31.617Z,99996.28
2023-05-24T08:37:58.169Z,99998.41
2023-05-24T08:40:25.160Z,100002.28
2023-05-24T08:42:52.805Z,100004.09
2023-05-24T08:45:21.859Z,100007.75
2023-05-24T08:47:50.638Z,100010.84
2023-05-24T08:50:18.265Z,99998.50
2023-05-24T08:52:46.158Z,100012.97
2023-05-24T08:55:12.886Z,100000.38
2023-05-24T08:57:41.484Z,99995.88
2023-05-24T09:00:12.999Z,99991.53
2023-05-24T09:02:42.125Z,99997.63
2023-05-24T09:05:11.089Z,99998.75
2023-05-24T09:07:38.373Z,99997.28
2023-05-24T09:10:07.400Z,99996.31
2023-05-24T09:12:38.057Z,99991.91
2023-05-24T09:15:07.068Z,99982.25
2023-05-24T09:17:37.940Z,99979.56
2023-05-24T09:20:10.729Z,99972.97
2023-05-24T09:22:41.144Z,99980.59
2023-05-24T09:25:09.917Z,99982.66
2023-05-24T09:27:37.715Z,99973.16
2023-05-24T09:30:09.176Z,99976.53
2023-05-24T09:32:36.202Z,99979.59
2023-05-24T09:35:02.832Z,99987.59
2023-05-24T09:37:32.770Z,99972.06
2023-05-24T09:39:59.913Z,99973.53
2023-05-24T09:42:31.217Z,99968.25
2023-05-24T09:45:09.552Z,99961.97
2023-05-24T09:47:38.221Z,99959.38
2023-05-24T09:50:07.083Z,99966.84
2023-05-24T09:52:37.498Z,99963.25
2023-05-24T09:55:18.080Z,99963.13
2023-05-24T09:57:49.910Z,99956.75
2023-05-24T10:00:22.697Z,99964.69
2023-05-24T10:03:15.083Z,99965.16
2023-05-24T10:05:45.829Z,99966.44
2023-05-24T10:08:14.451Z,99964.50
2023-05-24T10:10:42.814Z,99962.59
2023-05-24T10:13:10.459Z,99964.50
2023-05-24T10:15:37.062Z,99965.69
2023-05-24T10:18:11.243Z,99959.63
2023-05-24T10:20:41.882Z,99960.59
2023-05-24T10:23:10.383Z,99948.06
2023-05-24T10:25:41.424Z,99953.16
2023-05-24T10:28:12.555Z,99959.50
2023-05-24T10:30:53.284Z,99946.66
2023-05-24T10:33:23.277Z,99939.34
2023-05-24T10:35:51.241Z,99949.09
2023-05-24T10:38:22.619Z,99942.28
2023-05-24T10:40:49.564Z,99932.38
2023-05-24T10:43:17.687Z,99936.19
2023-05-24T10:45:49.168Z,99927.47
2023-05-24T10:48:15.871Z,99918.38
2023-05-24T10:50:44.156Z,99915.31
2023-05-24T10:53:19.116Z,99908.78
2023-05-24T10:55:55.874Z,99912.56
2023-05-24T10:58:28.338Z,99915.81
2023-05-24T11:00:56.184Z,99909.38
2023-05-24T11:03:24.617Z,99909.25
2023-05-24T11:05:54.588Z,99911.53
2023-05-24T11:08:43.787Z,99905.22
2023-05-24T11:13:42.418Z,99903.53
2023-05-24T11:16:09.151Z,99904.66
2023-05-24T11:18:40.144Z,99906.28
2023-05-24T11:21:06.795Z,99900.88
2023-05-24T11:23:35.394Z,99910.44
2023-05-24T11:26:03.757Z,99902.16
2023-05-24T11:28:30.739Z,99907.38
2023-05-24T11:30:57.431Z,99895.31
2023-05-24T11:33:24.566Z,99900.66
2023-05-24T11:35:52.390Z,99902.13
2023-05-24T11:38:23.457Z,99908.97
2023-05-24T11:40:51.475Z,99914.78
2023-05-24T11:43:20.510Z,99903.31
2023-05-24T11:45:49.705Z,99909.59
2023-05-24T11:48:17.265Z,99911.66
2023-05-24T11:50:49.809Z,99901.69
2023-05-24T11:53:19.372Z,99905.22
2023-05-24T11:55:46.613Z,99890.75
2023-05-24T11:58:37.555Z,99894.56
2023-05-24T12:01:04.148Z,99883.69
2023-05-24T12:03:31.049Z,99884.47
2023-05-24T12:05:57.867Z,99878.75
2023-05-24T12:08:24.447Z,99878.88
2023-05-24T12:10:51.813Z,99875.63
2023-05-24T12:13:23.841Z,99878.66
2023-05-24T12:15:55.536Z,99878.38
2023-05-24T12:18:26.000Z,99870.94
2023-05-24T12:20:53.174Z,99875.97
2023-05-24T12:23:21.681Z,99877.50
2023-05-24T12:25:48.243Z,99878.50
2023-05-24T12:28:15.132Z,99870.63
2023-05-24T12:30:45.151Z,99876.78
2023-05-24T12:33:12.080Z,99864.59
2023-05-24T12:35:42.721Z,99854.84
2023-05-24T12:38:10.794Z,99873.69
2023-05-24T12:40:37.862Z,99866.97
2023-05-24T12:43:05.179Z,99864.44
2023-05-24T12:45:32.145Z,99858.09
2023-05-24T12:48:01.167Z,99843.72
2023-05-24T12:50:27.829Z,99862.78
2023-05-24T12:52:54.453Z,99848.13
2023-05-24T12:55:28.822Z,99854.44
2023-05-24T12:57:56.572Z,99842.06
2023-05-24T13:00:27.460Z,99848.56
2023-05-24T13:02:58.993Z,99849.59
2023-05-24T13:05:27.689Z,99838.44
2023-05-24T13:07:59.157Z,99846.16
2023-05-24T13:10:27.678Z,99831.88
2023-05-24T13:12:54.265Z,99826.22
2023-05-24T13:15:23.318Z,99822.41
2023-05-24T13:17:50.324Z,99816.13
2023-05-24T13:20:18.770Z,99813.66
2023-05-24T13:22:45.376Z,99796.91
2023-05-24T13:25:12.083Z,99806.38
2023-05-24T13:27:39.881Z,99806.47
2023-05-24T13:30:08.560Z,99802.91
2023-05-24T13:32:35.347Z,99793.72
2023-05-24T13:35:02.144Z,99796.03
2023-05-24T13:37:29.001Z,99793.63
2023-05-24T13:39:56.050Z,99786.00
2023-05-24T13:42:23.113Z,99803.28
2023-05-24T13:44:49.840Z,99789.38
2023-05-24T13:47:31.117Z,99789.25
2023-05-24T13:50:02.304Z,99786.41
2023-05-24T13:52:28.836Z,99771.50
2023-05-24T13:54:55.934Z,99773.72
2023-05-24T13:57:24.395Z,99780.03
2023-05-24T13:59:53.448Z,99780.22
2023-05-24T14:02:20.070Z,99775.94
2023-05-24T14:04:46.658Z,99769.22
2023-05-24T14:07:15.755Z,99763.97
2023-05-24T14:09:42.677Z,99774.44
2023-05-24T14:12:09.425Z,99774.50
2023-05-24T14:14:59.192Z,99778.50
2023-05-24T14:17:23.310Z,99778.34
2023-05-24T14:19:50.002Z,99783.66
2023-05-24T14:22:16.622Z,99785.13
2023-05-24T14:24:44.142Z,99778.28
2023-05-24T14:27:10.802Z,99773.47
2023-05-24T14:29:37.350Z,99772.91
2023-05-24T14:32:04.191Z,99776.22
2023-05-24T14:34:30.988Z,99771.72
2023-05-24T14:36:57.618Z,99766.50
2023-05-24T14:39:24.164Z,99766.47
2023-05-24T14:41:50.769Z,99781.31
2023-05-24T14:44:17.991Z,99771.41
2023-05-24T14:46:46.412Z,99775.97
2023-05-24T14:49:13.188Z,99771.28
2023-05-24T14:51:39.805Z,99768.78
2023-05-24T14:54:06.519Z,99776.75
2023-05-24T14:56:33.527Z,99777.47
2023-05-24T14:59:00.134Z,99777.53
2023-05-24T15:01:27.764Z,99785.94
2023-05-24T15:03:54.421Z,99784.84
2023-05-24T15:06:21.116Z,99797.22
2023-05-24T15:08:47.949Z,99793.78
2023-05-24T15:11:17.431Z,99809.28
2023-05-24T15:13:44.047Z,99814.16
2023-05-24T15:16:10.672Z,99806.97
2023-05-24T15:18:37.287Z,99805.06
2023-05-24T15:21:04.113Z,99802.19
2023-05-24T15:23:30.786Z,99811.56
2023-05-24T15:25:57.440Z,99812.81
2023-05-24T15:28:26.187Z,99810.06
2023-05-24T15:30:53.365Z,99818.56
2023-05-24T15:33:20.049Z,99812.13
2023-05-24T15:35:47.141Z,99823.25
2023-05-24T15:38:17.500Z,99822.22
2023-05-24T15:40:44.996Z,99826.34
2023-05-24T15:43:11.784Z,99820.38
2023-05-24T15:45:38.390Z,99817.28
2023-05-24T15:48:05.149Z,99816.69
2023-05-24T15:50:49.322Z,99825.66
2023-05-24T15:53:21.548Z,99821.97
2023-05-24T15:55:48.459Z,99830.75
2023-05-24T15:58:15.762Z,99835.00
2023-05-24T16:00:43.150Z,99827.00
2023-05-24T16:03:10.220Z,99838.78
2023-05-24T16:05:37.133Z,99838.41
2023-05-24T16:08:04.188Z,99834.47
2023-05-24T16:10:30.916Z,99822.66
2023-05-24T16:12:58.700Z,99823.28
2023-05-24T16:15:26.636Z,99818.44
2023-05-24T16:17:53.691Z,99805.50
2023-05-24T16:20:20.365Z,99801.38
2023-05-24T16:22:50.859Z,99787.72
2023-05-24T16:25:17.464Z,99794.78
2023-05-24T16:27:44.131Z,99790.19
2023-05-24T16:30:11.150Z,99786.59
2023-05-24T16:32:39.423Z,99774.88
2023-05-24T16:35:07.451Z,99782.03
2023-05-24T16:37:34.708Z,99776.47
2023-05-24T16:40:01.396Z,99781.72
2023-05-24T16:42:28.099Z,99782.31
2023-05-24T16:44:54.690Z,99781.97
2023-05-24T16:47:21.344Z,99795.84
2023-05-24T16:49:48.023Z,99801.84
2023-05-24T16:52:14.744Z,99793.31
2023-05-24T16:54:41.286Z,99786.25
2023-05-24T16:57:08.119Z,99786.13
2023-05-24T16:59:34.775Z,99796.97
2023-05-24T17:02:01.400Z,99813.16
2023-05-24T17:04:27.965Z,99812.69
2023-05-24T17:06:54.537Z,99818.16
2023-05-24T17:09:21.538Z,99834.06
2023-05-24T17:11:49.357Z,99839.22
2023-05-24T17:14:17.265Z,99835.53
2023-05-24T17:16:43.887Z,99827.72
2023-05-24T17:19:12.709Z,99831.06
2023-05-24T17:21:39.414Z,99838.50
2023-05-24T17:24:06.402Z,99841.13
2023-05-24T17:26:32.971Z,99838.97
2023-05-24T17:28:59.550Z,99842.38
2023-05-24T17:31:26.196Z,99840.31
2023-05-24T17:33:52.955Z,99842.22
2023-05-24T17:36:19.509Z,99849.16
2023-05-24T17:38:46.101Z,99841.94
2023-05-24T17:41:12.741Z,99843.84
2023-05-24T17:43:40.504Z,99846.06
2023-05-24T17:46:07.721Z,99843.69
2023-05-24T17:48:36.666Z,99847.53
2023-05-24T17:51:07.942Z,99857.16
2023-05-24T17:53:35.530Z,99869.03
2023-05-24T17:56:03.403Z,99864.84
2023-05-24T17:58:32.823Z,99864.06
2023-05-24T18:00:59.471Z,99878.16
2023-05-24T18:03:26.365Z,99880.72
2023-05-24T18:05:52.975Z,99885.88
2023-05-24T18:08:19.593Z,99887.50
2023-05-24T18:10:46.196Z,99880.59
2023-05-24T18:13:13.213Z,99891.03
2023-05-24T18:15:39.862Z,99893.72
2023-05-24T18:18:06.580Z,99889.72
2023-05-24T18:20:33.852Z,99896.28
2023-05-24T18:23:00.469Z,99898.16
2023-05-24T18:25:27.189Z,99896.84
2023-05-24T18:27:53.736Z,99902.41
2023-05-24T18:30:20.392Z,99894.84
2023-05-24T18:33:03.146Z,99887.59
2023-05-24T18:35:32.133Z,99888.22
2023-05-24T18:37:58.864Z,99886.09
2023-05-24T18:40:25.548Z,99896.50
2023-05-24T18:42:52.254Z,99889.13
2023-05-24T18:45:18.994Z,99892.47
2023-05-24T18:47:45.626Z,99903.22
2023-05-24T18:50:12.269Z,99901.63
2023-05-24T18:52:38.880Z,99900.00
2023-05-24T18:55:10.542Z,99903.84
2023-05-24T18:57:37.996Z,99896.91
2023-05-24T19:00:07.062Z,99906.19
2023-05-24T19:02:39.013Z,99906.34
2023-05-24T19:05:06.383Z,99903.06
2023-05-24T19:07:34.209Z,99901.16
2023-05-24T19:10:01.048Z,99911.44
2023-05-24T19:12:27.645Z,99915.28
2023-05-24T19:14:54.284Z,99912.66
2023-05-24T19:17:21.000Z,99913.28
2023-05-24T19:19:48.103Z,99921.78
2023-05-24T19:22:14.704Z,99921.59
2023-05-24T19:24:41.693Z,99932.59
2023-05-24T19:27:08.708Z,99925.69
2023-05-24T19:29:36.656Z,99926.13
2023-05-24T19:32:03.448Z,99929.25
2023-05-24T19:34:31.968Z,99934.22
2023-05-24T19:36:58.656Z,99931.16
2023-05-24T19:39:25.445Z,99932.59
2023-05-24T19:41:54.867Z,99935.81
2023-05-24T19:44:21.673Z,99928.75
2023-05-24T19:46:48.290Z,99923.94
2023-05-24T19:49:14.861Z,99928.91
2023-05-24T19:51:41.562Z,99930.00
2023-05-24T19:54:09.431Z,99939.09
2023-05-24T19:56:36.345Z,99944.16
2023-05-24T19:59:03.099Z,99947.16
2023-05-24T20:01:29.689Z,99947.78
2023-05-24T20:03:56.415Z,99956.69
2023-05-24T20:06:23.020Z,99956.72
2023-05-24T20:08:49.639Z,99957.34
2023-05-24T20:11:16.281Z,99956.25
2023-05-24T20:13:42.882Z,99951.03
2023-05-24T20:16:09.505Z,99952.13
2023-05-24T20:18:36.398Z,99955.66
2023-05-24T20:21:03.495Z,99957.25
2023-05-24T20:23:30.903Z,99949.19
2023-05-24T20:25:58.034Z,99952.03
2023-05-24T20:28:30.811Z,99954.25
2023-05-24T20:30:58.441Z,99955.47
2023-05-24T20:33:25.103Z,99957.69
2023-05-24T20:35:53.133Z,99961.22
2023-05-24T20:38:19.985Z,99961.72
2023-05-24T20:40:46.638Z,99958.69
2023-05-24T20:43:13.300Z,99964.75
2023-05-24T20:45:40.063Z,99958.78
2023-05-24T20:48:06.917Z,99961.50
2023-05-24T20:50:33.555Z,99960.91
2023-05-24T20:53:00.239Z,99962.81
2023-05-24T20:55:27.191Z,99959.31
2023-05-24T20:57:54.324Z,99960.41
2023-05-24T21:00:21.207Z,99963.72
2023-05-24T21:02:48.055Z,99959.41
2023-05-24T21:05:14.849Z,99947.72
2023-05-24T21:07:41.627Z,99954.56
2023-05-24T21:10:09.358Z,99954.69
2023-05-24T21:12:36.013Z,99955.69
2023-05-24T21:15:02.598Z,99953.38
2023-05-24T21:17:29.304Z,99963.84
2023-05-24T21:19:55.970Z,99966.47
2023-05-24T21:22:22.637Z,99960.63
2023-05-24T21:24:49.322Z,99966.19
2023-05-24T21:27:15.893Z,99969.06
2023-05-24T21:29:42.505Z,99964.34
2023-05-24T21:32:09.097Z,99975.59
2023-05-24T21:34:38.539Z,99967.31
2023-05-24T21:37:05.355Z,99960.63
2023-05-24T21:39:32.798Z,99969.66
2023-05-24T21:41:59.406Z,99973.88
2023-05-24T21:44:25.945Z,99971.75
2023-05-24T21:46:52.633Z,99968.00
2023-05-24T21:49:20.111Z,99970.22
2023-05-24T21:51:46.930Z,99960.28
2023-05-24T21:54:13.593Z,99962.53
2023-05-24T21:56:40.272Z,99962.91
2023-05-24T21:59:06.868Z,99967.31
2023-05-24T22:01:33.544Z,99970.13
2023-05-24T22:04:00.199Z,99974.75
2023-05-24T22:06:26.832Z,99973.09
2023-05-24T22:08:53.489Z,99971.72
2023-05-24T22:11:20.331Z,99973.66
2023-05-24T22:13:46.891Z,99972.31
2023-05-24T22:16:13.514Z,99974.28
2023-05-24T22:18:40.088Z,99980.06
2023-05-24T22:21:06.678Z,99970.94
2023-05-24T22:23:33.405Z,99967.19
2023-05-24T22:26:00.155Z,99973.28
2023-05-24T22:28:26.784Z,99973.06
2023-05-24T22:30:53.435Z,99973.34
2023-05-24T22:33:20.061Z,99976.63
2023-05-24T22:35:46.749Z,99973.72
2023-05-24T22:38:13.362Z,99969.69
2023-05-24T22:40:42.131Z,99974.34
2023-05-24T22:43:09.012Z,99966.59
2023-05-24T22:45:35.572Z,99970.97
2023-05-24T22:48:03.474Z,99964.31
2023-05-24T22:50:30.204Z,99965.22
2023-05-24T22:52:56.924Z,99956.03
2023-05-24T22:55:23.986Z,99963.13
2023-05-24T22:57:50.827Z,99969.13
2023-05-24T23:00:17.752Z,99954.84
2023-05-24T23:02:44.461Z,99962.75
2023-05-24T23:05:11.596Z,99966.31
2023-05-24T23:07:39.919Z,99958.53
2023-05-24T23:10:08.055Z,99963.50
2023-05-24T23:12:35.881Z,99959.78
2023-05-24T23:15:02.790Z,99967.97
2023-05-24T23:17:29.507Z,99966.13
2023-05-24T23:19:56.314Z,99964.28
2023-05-24T23:22:23.975Z,99969.44
2023-05-24T23:24:50.847Z,99974.66
2023-05-24T23:27:17.936Z,99970.66
2023-05-24T23:29:44.633Z,99978.53
2023-05-24T23:32:11.621Z,99976.66
2023-05-24T23:34:38.267Z,99975.34
2023-05-24T23:37:05.567Z,99978.63
2023-05-24T23:39:32.162Z,99968.91
2023-05-24T23:41:58.951Z,99970.88
2023-05-24T23:44:25.834Z,99964.41
2023-05-24T23:46:53.126Z,99972.81
2023-05-24T23:49:20.612Z,99979.34
2023-05-24T23:51:47.357Z,99972.88
2023-05-24T23:54:18.980Z,99980.47
2023-05-24T23:56:45.652Z,99981.84
2023-05-24T23:59:12.663Z,99985.63
